Time;durP1;ratioP1;P1;durP2;ratioP2;P2;SDS_P1;SDS_P2;PMS_P1;PMS_P2;Temp;Humidity;BMP_temperature;BMP_pressure;BME280_temperature;BME280_humidity;BME280_pressure;Samples;Min_cycle;Max_cycle;Signal;HPM_P1;HPM_P2
2023/05/01 00:00:49;;;;;;;8.18;3.90;;;12.00;59.60;;;;;;5011238;28;20022;-62
2023/05/01 00:03:18;;;;;;;5.47;4.10;;;11.90;59.60;;;;;;5014008;28;20038;-63
2023/05/01 00:05:47;;;;;;;8.18;3.88;;;11.90;59.70;;;;;;5012961;28;20069;-62
2023/05/01 00:08:13;;;;;;;7.10;4.00;;;11.90;59.90;;;;;;5015663;28;20036;-62
2023/05/01 00:10:38;;;;;;;5.78;3.97;;;11.80;59.80;;;;;;5017046;28;20496;-62
2023/05/01 00:13:04;;;;;;;5.82;4.20;;;11.80;59.90;;;;;;5014171;28;20061;-62
2023/05/01 00:15:32;;;;;;;10.43;4.40;;;11.80;60.10;;;;;;5014503;28;20141;-62
2023/05/01 00:17:58;;;;;;;8.48;4.03;;;11.80;60.10;;;;;;5011542;28;20030;-62
2023/05/01 00:20:29;;;;;;;4.85;3.65;;;11.80;60.10;;;;;;5019940;28;20108;-63
2023/05/01 00:22:56;;;;;;;4.55;3.45;;;11.70;60.70;;;;;;5013323;28;20030;-63
2023/05/01 00:25:22;;;;;;;4.57;3.42;;;11.70;60.20;;;;;;5020665;28;20117;-61
2023/05/01 00:27:48;;;;;;;5.13;3.58;;;11.70;60.30;;;;;;5016016;28;20045;-62
2023/05/01 00:30:13;;;;;;;6.35;3.58;;;11.70;60.40;;;;;;5031503;28;20033;-63
2023/05/01 00:32:39;;;;;;;5.28;4.00;;;11.70;60.30;;;;;;5005175;28;20037;-63
2023/05/01 00:35:05;;;;;;;4.95;3.85;;;11.70;60.40;;;;;;5016053;28;20030;-63
2023/05/01 00:37:31;;;;;;;4.57;3.60;;;11.60;60.40;;;;;;5015189;28;20109;-61
2023/05/01 00:39:56;;;;;;;5.07;3.60;;;11.60;60.40;;;;;;5017276;28;20092;-62
2023/05/01 00:42:22;;;;;;;5.70;4.15;;;11.70;60.40;;;;;;4962925;28;20034;-62
2023/05/01 00:44:48;;;;;;;4.90;4.00;;;11.60;60.40;;;;;;5015608;28;20045;-61
2023/05/01 00:47:13;;;;;;;7.90;3.80;;;11.60;60.40;;;;;;5013313;28;20032;-62
2023/05/01 00:49:42;;;;;;;4.93;4.03;;;11.60;61.10;;;;;;5016031;28;20037;-62
2023/05/01 00:52:08;;;;;;;5.30;4.15;;;11.60;60.70;;;;;;5014964;28;20034;-63
2023/05/01 00:54:38;;;;;;;5.97;3.88;;;11.60;60.70;;;;;;5015468;28;20026;-64
2023/05/01 00:57:04;;;;;;;4.72;3.88;;;11.60;60.90;;;;;;5014287;28;20054;-62
2023/05/01 00:59:30;;;;;;;6.03;4.25;;;11.60;60.90;;;;;;5014153;28;20033;-62
2023/05/01 01:01:56;;;;;;;5.63;3.95;;;11.50;60.80;;;;;;5019431;28;20014;-64
2023/05/01 01:04:22;;;;;;;6.40;4.15;;;11.50;60.70;;;;;;5008969;28;20038;-62
2023/05/01 01:07:20;;;;;;;6.07;4.03;;;11.50;60.90;;;;;;5015677;28;20030;-62
2023/05/01 01:09:55;;;;;;;9.77;4.35;;;11.50;61.90;;;;;;5015840;28;20026;-62
2023/05/01 01:12:35;;;;;;;5.35;4.05;;;11.50;60.70;;;;;;5009497;28;20030;-64
2023/05/01 01:15:17;;;;;;;6.30;3.70;;;11.40;61.30;;;;;;5012731;28;20033;-63
2023/05/01 01:17:57;;;;;;;4.65;3.75;;;11.40;61.50;;;;;;4995870;28;20507;-62
2023/05/01 01:20:43;;;;;;;4.07;3.40;;;11.40;60.90;;;;;;5013139;28;20026;-64
2023/05/01 01:23:35;;;;;;;4.97;3.85;;;11.30;61.60;;;;;;5014697;28;20048;-63
2023/05/01 01:26:11;;;;;;;5.75;3.30;;;11.30;61.60;;;;;;5014074;28;20049;-61
2023/05/01 01:29:10;;;;;;;4.78;3.10;;;11.30;61.30;;;;;;5013006;28;20169;-61
2023/05/01 01:31:44;;;;;;;5.05;3.65;;;11.30;61.90;;;;;;5015709;28;20089;-63
2023/05/01 01:34:39;;;;;;;9.10;3.63;;;11.20;61.40;;;;;;5015397;28;20436;-61
2023/05/01 01:37:19;;;;;;;6.10;3.30;;;11.20;61.30;;;;;;4996423;28;20046;-63
2023/05/01 01:40:00;;;;;;;4.45;3.42;;;11.20;61.70;;;;;;5014098;28;20084;-63
2023/05/01 01:42:36;;;;;;;5.25;3.67;;;11.20;61.20;;;;;;4932139;28;20034;-63
2023/05/01 01:45:14;;;;;;;5.78;3.47;;;11.10;61.20;;;;;;5015673;28;20072;-62
2023/05/01 01:47:41;;;;;;;4.93;3.40;;;11.10;61.20;;;;;;5014858;28;20105;-62
2023/05/01 01:50:09;;;;;;;4.88;3.60;;;11.10;61.20;;;;;;4996972;28;20029;-62
2023/05/01 01:52:36;;;;;;;5.70;3.47;;;11.00;60.90;;;;;;5010728;28;20234;-62
2023/05/01 01:55:07;;;;;;;5.28;3.70;;;11.00;61.20;;;;;;5012042;28;20026;-62
2023/05/01 01:57:38;;;;;;;4.03;3.40;;;11.00;61.40;;;;;;5015425;28;20037;-63
2023/05/01 02:00:10;;;;;;;6.28;3.88;;;11.00;61.30;;;;;;5014402;28;20045;-61
2023/05/01 02:02:38;;;;;;;3.88;3.40;;;11.00;61.30;;;;;;4996559;28;20037;-62
2023/05/01 02:05:07;;;;;;;4.57;3.70;;;10.90;61.60;;;;;;5013913;28;20070;-61
2023/05/01 02:07:36;;;;;;;9.07;3.85;;;10.90;61.80;;;;;;5017828;28;20037;-62
2023/05/01 02:10:04;;;;;;;6.30;3.40;;;10.90;61.70;;;;;;5017195;28;20037;-63
2023/05/01 02:12:31;;;;;;;4.78;3.60;;;10.90;61.90;;;;;;5020995;28;20060;-63
2023/05/01 02:14:58;;;;;;;11.00;3.90;;;10.90;62.00;;;;;;5017951;28;20044;-63
2023/05/01 02:17:29;;;;;;;7.70;3.50;;;10.90;62.20;;;;;;5016627;28;20050;-63
2023/05/01 02:19:56;;;;;;;5.43;3.58;;;10.90;62.20;;;;;;5016908;28;20033;-63
2023/05/01 02:22:24;;;;;;;4.43;2.97;;;11.00;62.20;;;;;;5019068;28;20097;-62
2023/05/01 02:24:51;;;;;;;4.82;3.78;;;10.90;62.20;;;;;;4999346;28;20719;-62
2023/05/01 02:27:25;;;;;;;6.30;3.80;;;11.00;62.30;;;;;;5016814;28;20022;-62
2023/05/01 02:29:52;;;;;;;6.00;3.50;;;11.00;62.50;;;;;;5019590;28;20112;-62
2023/05/01 02:32:18;;;;;;;5.50;3.55;;;11.00;62.00;;;;;;5016041;28;20337;-62
2023/05/01 02:34:44;;;;;;;4.20;3.50;;;11.00;62.50;;;;;;5017314;28;20022;-63
2023/05/01 02:37:10;;;;;;;5.57;3.83;;;11.00;61.80;;;;;;5020844;28;20036;-63
2023/05/01 02:39:37;;;;;;;5.68;3.60;;;11.00;62.00;;;;;;5019352;28;20105;-62
2023/05/01 02:42:05;;;;;;;6.10;4.10;;;11.00;61.90;;;;;;4914660;28;20030;-62
2023/05/01 02:44:39;;;;;;;5.95;4.18;;;11.00;62.10;;;;;;5017718;28;20068;-63
2023/05/01 02:47:07;;;;;;;5.90;3.53;;;11.10;62.60;;;;;;5015285;28;20022;-61
2023/05/01 02:49:35;;;;;;;6.22;3.60;;;11.10;62.20;;;;;;5017220;28;20056;-62
2023/05/01 02:52:03;;;;;;;5.60;3.53;;;11.10;62.30;;;;;;5013243;28;20026;-62
2023/05/01 02:54:29;;;;;;;3.75;3.25;;;11.10;62.20;;;;;;5017496;28;20022;-63
2023/05/01 02:56:57;;;;;;;4.60;3.70;;;11.10;62.10;;;;;;5016565;28;20104;-62
2023/05/01 02:59:22;;;;;;;4.72;3.60;;;11.10;62.10;;;;;;5018977;28;20022;-62
2023/05/01 03:01:48;;;;;;;4.35;3.70;;;11.10;62.40;;;;;;5015733;28;20041;-62
2023/05/01 03:04:14;;;;;;;4.32;3.28;;;11.20;62.10;;;;;;5014902;28;20038;-62
2023/05/01 03:06:39;;;;;;;5.15;3.58;;;11.10;62.00;;;;;;5017383;28;20076;-61
2023/05/01 03:09:05;;;;;;;5.10;3.53;;;11.20;62.20;;;;;;5016365;28;20399;-62
2023/05/01 03:11:30;;;;;;;7.45;3.78;;;11.20;61.90;;;;;;5018384;28;20045;-62
2023/05/01 03:13:56;;;;;;;6.47;3.38;;;11.20;62.10;;;;;;5005835;28;20089;-62
2023/05/01 03:16:22;;;;;;;4.80;3.50;;;11.20;62.10;;;;;;5020686;28;20065;-62
2023/05/01 03:18:48;;;;;;;7.47;4.28;;;11.20;62.20;;;;;;5013519;28;20038;-63
2023/05/01 03:21:13;;;;;;;5.32;3.85;;;11.20;62.10;;;;;;5000762;28;20026;-64
2023/05/01 03:23:39;;;;;;;6.68;3.50;;;11.20;62.20;;;;;;5015970;28;20106;-64
2023/05/01 03:26:06;;;;;;;5.00;3.40;;;11.20;62.10;;;;;;5022332;28;20037;-63
2023/05/01 03:28:32;;;;;;;4.97;3.78;;;11.20;61.90;;;;;;5011807;28;20040;-63
2023/05/01 03:30:58;;;;;;;4.82;3.75;;;11.30;61.90;;;;;;5020714;28;20125;-61
2023/05/01 03:33:23;;;;;;;4.22;3.50;;;11.30;61.90;;;;;;5017965;28;20124;-62
2023/05/01 03:35:59;;;;;;;4.15;3.40;;;11.30;61.90;;;;;;5015543;28;20054;-63
2023/05/01 03:38:26;;;;;;;4.60;3.22;;;11.30;61.90;;;;;;5014876;28;20026;-62
2023/05/01 03:40:51;;;;;;;4.45;3.85;;;11.30;61.60;;;;;;4966624;28;20589;-63
2023/05/01 03:43:17;;;;;;;5.47;3.90;;;11.40;61.70;;;;;;5019223;28;20026;-61
2023/05/01 03:45:42;;;;;;;6.18;4.10;;;11.40;61.50;;;;;;5018900;28;20121;-61
2023/05/01 03:48:08;;;;;;;4.57;3.85;;;11.40;61.30;;;;;;5018637;28;20454;-61
2023/05/01 03:50:35;;;;;;;5.90;3.65;;;11.40;61.40;;;;;;5016312;28;20033;-63
2023/05/01 03:53:01;;;;;;;4.63;3.65;;;11.50;61.40;;;;;;5012247;28;20542;-63
2023/05/01 03:55:26;;;;;;;6.53;3.80;;;11.50;61.10;;;;;;5017075;28;20080;-62
2023/05/01 03:57:52;;;;;;;3.55;3.25;;;11.60;61.20;;;;;;5017241;28;20498;-61
2023/05/01 04:00:18;;;;;;;4.68;3.53;;;11.60;61.20;;;;;;4998603;28;20034;-64
2023/05/01 04:02:44;;;;;;;4.88;3.30;;;11.60;61.00;;;;;;5015880;28;20140;-63
2023/05/01 04:05:10;;;;;;;5.35;3.50;;;11.60;60.90;;;;;;5015317;28;20065;-63
2023/05/01 04:07:35;;;;;;;5.55;3.80;;;11.60;61.00;;;;;;5014888;28;20077;-61
2023/05/01 04:10:02;;;;;;;4.45;3.65;;;11.70;60.90;;;;;;5015134;28;20057;-62
2023/05/01 04:12:27;;;;;;;4.93;3.58;;;11.70;60.90;;;;;;4996166;28;20030;-62
2023/05/01 04:14:53;;;;;;;5.38;4.03;;;11.70;61.00;;;;;;5015474;28;20072;-62
2023/05/01 04:17:18;;;;;;;6.68;3.90;;;11.70;61.00;;;;;;5016204;28;20026;-62
2023/05/01 04:19:46;;;;;;;4.75;3.60;;;11.70;61.10;;;;;;5014503;28;20030;-61
2023/05/01 04:22:12;;;;;;;7.00;3.65;;;11.80;61.20;;;;;;5014342;28;20477;-61
2023/05/01 04:24:38;;;;;;;8.10;3.40;;;11.80;61.10;;;;;;5023870;28;20040;-62
2023/05/01 04:27:04;;;;;;;4.10;3.65;;;11.80;61.00;;;;;;5013957;28;20026;-63
2023/05/01 04:29:30;;;;;;;4.80;3.75;;;11.80;61.00;;;;;;5013076;28;20033;-61
2023/05/01 04:31:56;;;;;;;5.68;3.63;;;11.80;62.00;;;;;;5009663;28;20030;-62
2023/05/01 04:34:21;;;;;;;3.88;3.15;;;11.80;61.20;;;;;;5016892;28;20034;-63
2023/05/01 04:36:47;;;;;;;3.47;3.05;;;11.80;61.10;;;;;;5018355;28;20686;-64
2023/05/01 04:39:14;;;;;;;5.53;3.45;;;11.90;61.10;;;;;;5014153;28;20185;-63
2023/05/01 04:41:40;;;;;;;4.80;3.70;;;11.80;61.00;;;;;;4995940;28;20045;-62
2023/05/01 04:44:06;;;;;;;4.50;3.13;;;11.90;61.00;;;;;;5014012;28;20029;-61
2023/05/01 04:46:32;;;;;;;8.57;3.30;;;11.90;60.90;;;;;;5012294;28;20029;-62
2023/05/01 04:48:57;;;;;;;3.92;3.50;;;11.90;61.00;;;;;;5000901;28;20033;-63
2023/05/01 04:51:23;;;;;;;4.75;3.63;;;11.90;61.20;;;;;;5014374;28;20034;-62
2023/05/01 04:53:49;;;;;;;3.67;3.25;;;12.00;61.30;;;;;;5014908;28;20030;-62
2023/05/01 04:56:14;;;;;;;4.70;3.33;;;12.00;61.40;;;;;;5012599;28;20048;-64
2023/05/01 04:58:41;;;;;;;6.25;3.47;;;12.10;61.30;;;;;;5011932;28;20026;-62
2023/05/01 05:01:06;;;;;;;4.40;3.40;;;12.10;61.50;;;;;;5011797;28;20033;-63
2023/05/01 05:03:32;;;;;;;4.45;3.25;;;12.10;61.20;;;;;;5013147;28;20030;-62
2023/05/01 05:05:57;;;;;;;7.43;3.25;;;12.10;61.10;;;;;;5013747;28;20033;-63
2023/05/01 05:08:23;;;;;;;5.50;3.53;;;12.10;61.10;;;;;;5015100;28;20033;-63
2023/05/01 05:10:54;;;;;;;4.65;3.28;;;12.20;61.20;;;;;;5012732;28;20041;-63
2023/05/01 05:13:20;;;;;;;4.22;3.40;;;12.20;61.20;;;;;;5010817;28;20159;-62
2023/05/01 05:15:46;;;;;;;3.80;3.33;;;12.20;61.50;;;;;;5011821;28;20038;-62
2023/05/01 05:18:11;;;;;;;6.88;3.60;;;12.30;60.60;;;;;;5012968;28;20145;-62
2023/05/01 05:20:38;;;;;;;5.65;3.50;;;12.30;60.70;;;;;;5012702;28;20821;-62
2023/05/01 05:23:04;;;;;;;4.65;3.53;;;12.40;60.80;;;;;;5016064;28;20026;-63
2023/05/01 05:25:30;;;;;;;4.97;3.58;;;12.40;60.50;;;;;;5017524;28;20181;-61
2023/05/01 05:27:55;;;;;;;4.72;3.58;;;12.50;60.00;;;;;;5011550;28;20033;-63
2023/05/01 05:30:21;;;;;;;5.15;3.28;;;12.50;59.90;;;;;;5012040;28;20030;-63
2023/05/01 05:32:47;;;;;;;5.68;3.63;;;12.50;60.00;;;;;;5013568;28;20056;-62
2023/05/01 05:35:12;;;;;;;5.25;3.40;;;12.60;60.00;;;;;;5013602;28;21189;-63
2023/05/01 05:37:38;;;;;;;4.65;3.17;;;12.50;59.90;;;;;;5014698;28;20076;-62
2023/05/01 05:40:04;;;;;;;4.63;3.10;;;12.60;59.90;;;;;;5012249;28;20045;-63
2023/05/01 05:42:30;;;;;;;4.82;3.53;;;12.60;60.10;;;;;;5017450;28;20026;-61
2023/05/01 05:44:55;;;;;;;5.22;3.88;;;12.70;60.50;;;;;;5014485;28;20042;-63
2023/05/01 05:47:21;;;;;;;4.55;3.83;;;12.60;60.30;;;;;;5015259;28;20045;-61
2023/05/01 05:49:47;;;;;;;6.38;3.80;;;12.70;60.20;;;;;;5016473;28;20029;-61
2023/05/01 05:52:13;;;;;;;8.43;3.95;;;12.70;60.10;;;;;;5019628;28;20076;-62
2023/05/01 05:54:39;;;;;;;6.13;3.78;;;12.70;60.30;;;;;;5023053;28;20109;-62
2023/05/01 05:57:05;;;;;;;5.60;3.78;;;12.70;60.50;;;;;;5003660;28;20022;-61
2023/05/01 05:59:30;;;;;;;4.63;3.78;;;12.70;60.70;;;;;;5015875;28;20038;-62
2023/05/01 06:01:56;;;;;;;7.72;4.15;;;12.70;60.80;;;;;;5014243;28;20026;-62
2023/05/01 06:04:22;;;;;;;4.43;3.70;;;12.70;60.90;;;;;;5002865;28;20052;-63
2023/05/01 06:06:47;;;;;;;5.13;4.07;;;12.70;60.80;;;;;;5018943;28;20054;-63
2023/05/01 06:09:14;;;;;;;6.05;4.13;;;12.70;61.00;;;;;;5002070;28;20038;-63
2023/05/01 06:11:39;;;;;;;7.20;4.00;;;12.70;61.10;;;;;;5016537;28;20536;-63
2023/05/01 06:14:06;;;;;;;7.85;4.30;;;12.70;61.20;;;;;;5017045;28;20045;-62
2023/05/01 06:16:32;;;;;;;4.85;3.92;;;12.70;61.30;;;;;;4997907;28;20409;-63
2023/05/01 06:18:58;;;;;;;5.25;3.97;;;12.70;61.30;;;;;;5017643;28;20106;-62
2023/05/01 06:21:24;;;;;;;8.23;4.00;;;12.70;61.50;;;;;;5021515;28;20029;-63
2023/05/01 06:23:50;;;;;;;5.35;4.05;;;12.70;61.60;;;;;;5024071;28;20034;-65
2023/05/01 06:26:15;;;;;;;5.03;4.05;;;12.80;61.70;;;;;;5019531;28;20100;-64
2023/05/01 06:28:41;;;;;;;6.38;4.32;;;12.80;61.80;;;;;;5015056;28;20034;-64
2023/05/01 06:31:07;;;;;;;7.57;3.78;;;12.80;61.60;;;;;;5014495;28;20034;-64
2023/05/01 06:33:33;;;;;;;5.53;3.92;;;12.90;61.50;;;;;;5023709;28;20045;-64
2023/05/01 06:35:58;;;;;;;9.60;4.32;;;12.90;61.90;;;;;;5018485;28;20030;-64
2023/05/01 06:38:27;;;;;;;7.68;3.80;;;12.90;62.50;;;;;;5017722;28;20048;-64
2023/05/01 06:40:53;;;;;;;5.32;4.20;;;13.00;61.40;;;;;;4916918;28;20771;-64
2023/05/01 06:43:19;;;;;;;6.80;4.45;;;13.00;61.40;;;;;;4997945;28;20052;-64
2023/05/01 06:45:44;;;;;;;6.38;4.57;;;13.00;61.50;;;;;;5016590;28;20116;-64
2023/05/01 06:48:10;;;;;;;5.85;4.20;;;13.10;61.50;;;;;;5012777;28;20060;-64
2023/05/01 06:50:36;;;;;;;4.80;4.30;;;13.10;61.40;;;;;;5016184;28;20441;-64
2023/05/01 06:53:01;;;;;;;5.13;4.35;;;13.10;61.70;;;;;;5015890;28;20032;-64
2023/05/01 06:55:32;;;;;;;5.10;4.15;;;13.10;61.90;;;;;;5012687;28;20028;-64
2023/05/01 06:57:57;;;;;;;7.20;4.70;;;13.10;61.80;;;;;;5017854;28;20041;-63
2023/05/01 07:00:23;;;;;;;6.85;4.93;;;13.20;61.80;;;;;;5014630;28;20026;-63
2023/05/01 07:02:49;;;;;;;6.55;4.88;;;13.20;61.50;;;;;;5006071;28;20026;-63
2023/05/01 07:05:15;;;;;;;8.68;4.93;;;13.30;61.50;;;;;;5016625;28;20038;-62
2023/05/01 07:07:40;;;;;;;8.48;6.10;;;13.30;61.60;;;;;;5015931;28;20037;-63
2023/05/01 07:10:06;;;;;;;8.00;5.80;;;13.30;61.70;;;;;;5013606;28;20081;-63
2023/05/01 07:12:32;;;;;;;8.82;5.65;;;13.30;61.70;;;;;;4998543;28;20028;-63
2023/05/01 07:14:58;;;;;;;8.57;6.03;;;13.30;61.90;;;;;;5013030;28;20145;-63
2023/05/01 07:17:24;;;;;;;8.15;5.80;;;13.30;61.80;;;;;;5010441;28;20351;-63
2023/05/01 07:19:50;;;;;;;8.27;5.70;;;13.30;61.60;;;;;;5015268;28;20036;-63
2023/05/01 07:22:16;;;;;;;10.45;6.75;;;13.40;61.60;;;;;;5016502;28;20088;-63
2023/05/01 07:24:41;;;;;;;8.52;6.40;;;13.40;61.70;;;;;;5017686;28;20077;-63
2023/05/01 07:27:07;;;;;;;11.68;6.90;;;13.40;61.80;;;;;;5014634;28;20041;-63
2023/05/01 07:29:35;;;;;;;10.80;7.07;;;13.40;62.00;;;;;;5017801;28;20037;-63
2023/05/01 07:32:00;;;;;;;8.48;6.65;;;13.40;62.20;;;;;;4999540;28;20029;-63
2023/05/01 07:34:26;;;;;;;8.85;7.07;;;13.40;62.20;;;;;;5010693;28;20414;-63
2023/05/01 07:36:52;;;;;;;9.30;6.43;;;13.50;62.00;;;;;;5015233;28;20068;-63
2023/05/01 07:39:17;;;;;;;8.57;6.65;;;13.50;61.90;;;;;;5016856;28;20057;-64
2023/05/01 07:41:43;;;;;;;8.13;6.32;;;13.60;62.10;;;;;;4888928;28;20463;-64
2023/05/01 07:44:09;;;;;;;9.35;6.32;;;13.60;62.20;;;;;;5011669;28;20501;-62
2023/05/01 07:46:35;;;;;;;15.40;6.53;;;13.70;61.70;;;;;;5015794;28;20646;-63
2023/05/01 07:49:01;;;;;;;6.97;5.43;;;13.70;61.60;;;;;;5016609;28;20350;-63
2023/05/01 07:51:27;;;;;;;6.75;5.30;;;13.80;61.40;;;;;;4995332;28;20508;-64
2023/05/01 07:53:52;;;;;;;7.53;5.47;;;13.80;61.30;;;;;;5014611;28;20036;-62
2023/05/01 07:56:18;;;;;;;11.25;5.88;;;13.80;61.40;;;;;;5016561;28;20088;-63
2023/05/01 07:58:43;;;;;;;7.30;5.53;;;13.90;61.70;;;;;;5011927;28;20041;-64
2023/05/01 08:01:09;;;;;;;7.38;5.15;;;13.90;61.90;;;;;;5013462;28;20085;-64
2023/05/01 08:03:35;;;;;;;7.55;4.82;;;13.90;61.60;;;;;;5014503;28;20064;-64
2023/05/01 08:06:01;;;;;;;7.68;5.20;;;14.00;61.50;;;;;;5015245;28;20398;-64
2023/05/01 08:08:26;;;;;;;8.95;4.93;;;14.00;61.30;;;;;;5012215;28;20033;-63
2023/05/01 08:10:53;;;;;;;7.38;5.55;;;14.10;61.00;;;;;;5015770;28;20540;-63
2023/05/01 08:13:19;;;;;;;6.97;4.72;;;14.10;60.70;;;;;;5016567;28;20030;-65
2023/05/01 08:15:46;;;;;;;7.20;5.18;;;14.20;60.50;;;;;;5010503;28;20052;-64
2023/05/01 08:18:18;;;;;;;11.40;6.75;;;14.20;60.40;;;;;;5010490;28;20072;-64
2023/05/01 08:20:45;;;;;;;7.43;5.30;;;14.30;60.10;;;;;;4996240;28;20033;-63
2023/05/01 08:23:10;;;;;;;6.57;4.72;;;14.30;60.10;;;;;;5016674;28;20022;-64
2023/05/01 08:25:36;;;;;;;10.30;6.70;;;14.30;60.00;;;;;;5010983;28;20101;-63
2023/05/01 08:28:02;;;;;;;14.60;9.20;;;14.40;60.20;;;;;;4993378;28;20034;-63
2023/05/01 08:30:28;;;;;;;8.52;6.00;;;14.40;59.70;;;;;;5019235;28;20029;-64
2023/05/01 08:32:53;;;;;;;5.82;5.10;;;14.40;59.40;;;;;;5014278;28;20520;-65
2023/05/01 08:35:19;;;;;;;6.93;4.75;;;14.50;59.60;;;;;;4995649;28;20038;-65
2023/05/01 08:37:45;;;;;;;7.38;4.60;;;14.50;59.80;;;;;;5001489;28;20040;-63
2023/05/01 08:40:11;;;;;;;7.47;4.97;;;14.60;60.20;;;;;;5007375;28;20046;-63
2023/05/01 08:42:37;;;;;;;6.38;4.75;;;14.60;59.80;;;;;;4912961;28;20035;-63
2023/05/01 08:45:07;;;;;;;6.20;5.10;;;14.70;59.70;;;;;;4993330;28;20121;-64
2023/05/01 08:47:36;;;;;;;5.55;4.65;;;14.70;59.70;;;;;;5000607;28;20072;-64
2023/05/01 08:50:03;;;;;;;6.93;4.45;;;14.80;59.30;;;;;;4999429;28;20443;-63
2023/05/01 08:52:30;;;;;;;9.60;5.75;;;14.80;59.20;;;;;;4997386;28;20034;-63
2023/05/01 08:54:57;;;;;;;10.52;5.32;;;14.80;59.40;;;;;;5004701;28;20026;-64
2023/05/01 08:57:24;;;;;;;7.00;4.95;;;14.90;59.60;;;;;;4999675;28;20036;-64
2023/05/01 08:59:52;;;;;;;5.70;4.63;;;14.90;59.50;;;;;;4997920;28;20033;-63
2023/05/01 09:02:20;;;;;;;6.47;4.90;;;15.00;59.50;;;;;;4997827;28;20026;-65
2023/05/01 09:04:46;;;;;;;7.03;4.63;;;15.00;59.50;;;;;;4995517;28;20046;-65
2023/05/01 09:07:12;;;;;;;7.45;5.05;;;15.00;59.40;;;;;;4994877;28;20033;-63
2023/05/01 09:09:38;;;;;;;6.28;4.70;;;15.10;59.30;;;;;;4993894;28;20026;-63
2023/05/01 09:12:24;;;;;;;5.90;4.63;;;15.10;59.00;;;;;;4987557;28;20108;-63
2023/05/01 09:14:53;;;;;;;6.40;5.10;;;15.20;59.00;;;;;;4982151;28;20038;-63
2023/05/01 09:17:20;;;;;;;9.48;4.97;;;15.30;58.90;;;;;;4985731;28;20089;-63
2023/05/01 09:19:47;;;;;;;5.45;4.20;;;15.30;58.80;;;;;;4999490;28;20034;-63
2023/05/01 09:22:12;;;;;;;7.78;5.05;;;15.40;58.70;;;;;;4999194;28;20034;-64
2023/05/01 09:24:38;;;;;;;5.32;4.53;;;15.40;58.60;;;;;;4999887;28;20041;-64
2023/05/01 09:27:05;;;;;;;9.98;4.60;;;15.40;58.30;;;;;;4983501;28;20030;-64
2023/05/01 09:29:41;;;;;;;9.38;4.57;;;15.50;58.30;;;;;;4999012;28;20023;-64
2023/05/01 09:32:28;;;;;;;6.07;4.80;;;15.50;58.10;;;;;;5004632;28;20042;-63
2023/05/01 09:35:08;;;;;;;6.22;4.75;;;15.60;58.20;;;;;;4998078;28;20453;-64
2023/05/01 09:37:34;;;;;;;5.35;4.00;;;15.60;58.30;;;;;;5004043;28;20034;-64
2023/05/01 09:40:13;;;;;;;6.10;4.53;;;15.70;58.10;;;;;;4935760;28;20656;-64
2023/05/01 09:42:49;;;;;;;6.15;5.10;;;15.80;58.10;;;;;;5014120;28;20553;-63
2023/05/01 09:45:15;;;;;;;7.80;4.93;;;15.80;58.20;;;;;;5001972;28;20049;-63
2023/05/01 09:47:42;;;;;;;6.78;5.05;;;15.90;58.50;;;;;;5015461;28;20113;-63
2023/05/01 09:50:10;;;;;;;6.82;4.80;;;16.00;58.40;;;;;;5018402;28;20033;-63
2023/05/01 09:52:36;;;;;;;6.57;4.68;;;16.00;58.00;;;;;;5012170;28;20099;-65
2023/05/01 09:55:16;;;;;;;9.57;6.07;;;16.10;57.90;;;;;;5018679;28;20029;-63
2023/05/01 09:57:42;;;;;;;8.10;6.32;;;16.20;57.90;;;;;;5018986;28;20044;-64
2023/05/01 10:00:14;;;;;;;6.55;5.07;;;16.20;57.90;;;;;;5019518;28;20045;-64
2023/05/01 10:02:41;;;;;;;6.47;5.05;;;16.30;57.70;;;;;;5016314;28;20025;-64
2023/05/01 10:05:09;;;;;;;7.22;4.95;;;16.30;57.60;;;;;;5019281;28;20046;-63
2023/05/01 10:07:35;;;;;;;5.82;4.78;;;16.40;57.60;;;;;;5020791;28;20018;-64
2023/05/01 10:10:18;;;;;;;6.75;4.90;;;16.40;57.50;;;;;;5020319;28;20121;-63
2023/05/01 10:12:43;;;;;;;7.18;4.93;;;16.50;57.00;;;;;;5010709;28;20038;-63
2023/05/01 10:15:10;;;;;;;6.82;5.05;;;16.50;57.30;;;;;;5019052;28;20029;-65
2023/05/01 10:17:37;;;;;;;9.82;5.55;;;16.60;57.30;;;;;;5016656;28;20111;-63
2023/05/01 10:20:03;;;;;;;8.00;5.15;;;16.60;57.30;;;;;;5017467;28;20030;-65
2023/05/01 10:22:28;;;;;;;6.15;4.90;;;16.70;56.80;;;;;;5015133;28;20026;-63
2023/05/01 10:24:58;;;;;;;7.22;5.18;;;16.70;56.90;;;;;;5017817;28;20148;-63
2023/05/01 10:27:24;;;;;;;6.53;5.15;;;16.70;57.00;;;;;;5018639;28;20022;-64
2023/05/01 10:29:52;;;;;;;6.80;5.20;;;16.70;57.10;;;;;;5017535;28;20064;-63
2023/05/01 10:32:19;;;;;;;8.57;5.10;;;16.80;56.90;;;;;;5013027;28;20080;-64
2023/05/01 10:34:51;;;;;;;6.93;5.13;;;16.80;57.10;;;;;;5019206;28;20026;-63
2023/05/01 10:37:30;;;;;;;5.90;4.43;;;16.90;57.40;;;;;;5016293;28;20036;-64
2023/05/01 10:39:57;;;;;;;7.05;4.65;;;16.90;57.10;;;;;;5015799;28;20075;-63
2023/05/01 10:42:22;;;;;;;7.13;4.90;;;17.00;57.20;;;;;;4919242;28;20764;-62
2023/05/01 10:44:48;;;;;;;6.88;5.05;;;17.00;57.30;;;;;;5011255;28;20110;-62
2023/05/01 10:47:23;;;;;;;6.57;5.30;;;17.10;56.70;;;;;;5017390;28;20026;-64
2023/05/01 10:50:09;;;;;;;8.20;5.25;;;17.10;56.80;;;;;;5014854;28;20026;-63
2023/05/01 10:53:11;;;;;;;5.45;4.28;;;17.20;56.40;;;;;;5012769;28;20030;-63
2023/05/01 10:55:38;;;;;;;7.90;4.72;;;17.40;57.20;;;;;;5015591;28;20100;-63
2023/05/01 10:58:04;;;;;;;6.65;5.03;;;17.50;56.80;;;;;;5016391;28;20085;-64
2023/05/01 11:00:32;;;;;;;6.57;5.05;;;17.60;56.80;;;;;;5016456;28;20061;-64
2023/05/01 11:03:20;;;;;;;9.05;4.82;;;17.70;56.90;;;;;;5013924;28;20049;-64
2023/05/01 11:06:04;;;;;;;6.05;5.10;;;17.90;56.80;;;;;;5014535;28;20464;-63
2023/05/01 11:08:31;;;;;;;7.25;5.00;;;18.20;57.40;;;;;;5016415;28;20423;-63
2023/05/01 11:10:56;;;;;;;6.13;4.72;;;18.30;56.90;;;;;;5018357;28;20026;-63
2023/05/01 11:14:04;;;;;;;6.25;4.75;;;18.50;56.70;;;;;;5016645;28;20044;-64
2023/05/01 11:16:42;;;;;;;7.63;4.93;;;18.70;55.90;;;;;;5006248;28;20053;-64
2023/05/01 11:19:08;;;;;;;8.10;4.82;;;18.90;55.80;;;;;;5015532;28;20136;-64
2023/05/01 11:21:36;;;;;;;6.93;4.90;;;19.00;55.90;;;;;;5001485;28;20033;-64
2023/05/01 11:24:05;;;;;;;5.97;4.72;;;19.00;55.10;;;;;;5014215;28;20117;-64
2023/05/01 11:26:31;;;;;;;7.68;4.90;;;19.10;54.50;;;;;;5015851;28;20076;-64
2023/05/01 11:28:59;;;;;;;8.00;5.05;;;19.10;55.40;;;;;;5019069;28;20046;-64
2023/05/01 11:31:25;;;;;;;5.50;4.05;;;19.20;54.60;;;;;;5022188;28;20041;-63
2023/05/01 11:33:54;;;;;;;5.65;4.60;;;19.20;54.50;;;;;;5014453;28;20030;-64
2023/05/01 11:36:20;;;;;;;9.38;5.07;;;19.20;54.50;;;;;;5007838;28;20030;-63
2023/05/01 11:38:55;;;;;;;6.28;4.60;;;19.20;54.80;;;;;;5017007;28;20576;-64
2023/05/01 11:41:22;;;;;;;5.82;4.70;;;19.20;54.40;;;;;;4955815;28;20892;-64
2023/05/01 11:43:52;;;;;;;5.45;4.35;;;19.20;54.50;;;;;;5015397;28;20029;-64
2023/05/01 11:46:29;;;;;;;6.10;4.57;;;19.10;54.50;;;;;;5015495;28;20054;-63
2023/05/01 11:49:00;;;;;;;7.80;4.60;;;19.10;54.30;;;;;;5007235;28;20034;-62
2023/05/01 11:51:26;;;;;;;6.40;4.43;;;19.10;54.70;;;;;;4996647;28;20655;-65
2023/05/01 11:54:03;;;;;;;6.68;4.72;;;19.10;54.70;;;;;;5014283;28;20061;-65
2023/05/01 11:56:29;;;;;;;7.32;4.35;;;19.10;55.30;;;;;;5016782;28;20065;-63
2023/05/01 11:58:57;;;;;;;5.88;4.47;;;19.10;54.70;;;;;;5015270;28;20026;-63
2023/05/01 12:01:36;;;;;;;6.43;4.43;;;19.10;54.80;;;;;;5016286;28;20033;-63
2023/05/01 12:04:03;;;;;;;8.82;4.55;;;19.00;54.20;;;;;;5012626;28;20033;-63
2023/05/01 12:06:43;;;;;;;6.60;5.03;;;19.00;54.60;;;;;;5013979;28;20034;-63
2023/05/01 12:09:14;;;;;;;5.95;4.80;;;19.00;54.90;;;;;;5016268;28;20057;-64
2023/05/01 12:11:40;;;;;;;7.18;4.60;;;19.10;55.40;;;;;;5012571;28;20390;-64
2023/05/01 12:14:06;;;;;;;5.35;4.78;;;19.20;55.80;;;;;;4997212;28;20045;-64
2023/05/01 12:16:32;;;;;;;6.13;4.53;;;19.30;55.70;;;;;;5015921;28;20029;-63
2023/05/01 12:18:58;;;;;;;6.43;4.75;;;19.40;55.90;;;;;;5014803;28;20574;-63
2023/05/01 12:21:24;;;;;;;7.40;5.40;;;19.50;55.90;;;;;;5013307;28;20358;-65
2023/05/01 12:23:51;;;;;;;5.43;4.85;;;19.60;56.50;;;;;;5001508;28;20481;-65
2023/05/01 12:26:24;;;;;;;6.20;4.78;;;19.80;56.20;;;;;;5016395;28;20472;-65
2023/05/01 12:29:00;;;;;;;6.53;4.60;;;20.00;55.60;;;;;;5016006;28;20049;-64
2023/05/01 12:31:28;;;;;;;6.10;4.68;;;20.20;55.00;;;;;;5011634;28;20926;-64
2023/05/01 12:34:05;;;;;;;7.82;6.03;;;20.40;55.00;;;;;;5016311;28;20037;-63
2023/05/01 12:36:36;;;;;;;6.47;4.53;;;20.60;54.60;;;;;;5014375;28;20034;-63
2023/05/01 12:39:04;;;;;;;8.95;6.07;;;20.80;53.70;;;;;;5015656;28;20033;-63
2023/05/01 12:41:35;;;;;;;6.60;4.70;;;21.00;53.50;;;;;;4902289;28;20054;-63
2023/05/01 12:44:02;;;;;;;5.20;4.00;;;21.10;53.20;;;;;;4987343;28;20034;-64
2023/05/01 12:46:28;;;;;;;8.82;6.60;;;21.30;53.10;;;;;;4994435;28;20039;-64
2023/05/01 12:48:55;;;;;;;39.53;24.52;;;21.40;52.50;;;;;;4991905;28;20022;-64
2023/05/01 12:51:21;;;;;;;10.35;6.82;;;21.50;52.00;;;;;;4995527;28;20026;-65